Time;durP1;ratioP1;P1;durP2;ratioP2;P2;SDS_P1;SDS_P2;PMS_P1;PMS_P2;Temp;Humidity;BMP_temperature;BMP_pressure;BME280_temperature;BME280_humidity;BME280_pressure;Samples;Min_cycle;Max_cycle;Signal;HPM_P1;HPM_P2
2022/11/09 00:01:15;;;;;;;0.88;0.60;;;20.00;83.90;;;;;;6272958;22;45362;-70
2022/11/09 00:03:42;;;;;;;2.33;0.73;;;20.00;83.90;;;;;;6272786;22;45359;-70
2022/11/09 00:06:09;;;;;;;0.80;0.55;;;20.00;83.80;;;;;;6272358;22;45287;-70
2022/11/09 00:08:36;;;;;;;0.73;0.45;;;20.00;83.80;;;;;;6272497;22;47055;-70
2022/11/09 00:11:06;;;;;;;0.80;0.52;;;20.00;83.80;;;;;;6273249;22;45383;-70
2022/11/09 00:13:36;;;;;;;0.80;0.70;;;20.00;83.80;;;;;;6271692;22;45279;-71
2022/11/09 00:16:03;;;;;;;1.15;0.60;;;20.00;83.80;;;;;;6271860;22;45362;-70
2022/11/09 00:18:30;;;;;;;1.77;0.80;;;20.00;83.60;;;;;;6273251;22;46424;-69
2022/11/09 00:20:57;;;;;;;0.65;0.50;;;20.00;83.50;;;;;;6272648;22;45303;-69
2022/11/09 00:23:23;;;;;;;0.52;0.40;;;20.00;83.30;;;;;;6273461;22;45224;-70
2022/11/09 00:25:50;;;;;;;0.90;0.60;;;20.00;83.50;;;;;;6271986;22;45351;-70
2022/11/09 00:28:19;;;;;;;0.95;0.60;;;20.00;83.30;;;;;;6270035;22;46302;-71
2022/11/09 00:30:46;;;;;;;0.40;0.40;;;20.00;83.30;;;;;;6272733;22;45742;-69
2022/11/09 00:33:12;;;;;;;1.27;0.80;;;20.00;83.30;;;;;;6272854;22;45347;-69
2022/11/09 00:35:39;;;;;;;0.50;0.50;;;20.00;83.10;;;;;;6272802;22;45323;-70
2022/11/09 00:38:06;;;;;;;0.80;0.52;;;20.00;83.00;;;;;;6271737;22;47396;-69
2022/11/09 00:40:33;;;;;;;0.50;0.40;;;20.00;83.10;;;;;;6272879;22;46014;-69
2022/11/09 00:42:59;;;;;;;1.55;0.63;;;20.00;83.00;;;;;;6271370;22;45297;-70
2022/11/09 00:45:27;;;;;;;1.20;0.73;;;20.00;83.10;;;;;;6272703;22;45362;-69
2022/11/09 00:47:54;;;;;;;2.17;0.68;;;20.00;83.20;;;;;;6271812;22;47251;-70
2022/11/09 00:50:21;;;;;;;1.27;0.60;;;20.00;83.50;;;;;;6273288;22;45402;-70
2022/11/09 00:52:48;;;;;;;0.98;0.68;;;20.00;83.70;;;;;;6274634;22;45231;-70
2022/11/09 00:55:16;;;;;;;0.73;0.52;;;20.00;83.60;;;;;;6273294;22;45418;-69
2022/11/09 00:57:42;;;;;;;0.93;0.52;;;20.00;83.70;;;;;;6273751;22;46446;-69
2022/11/09 01:00:11;;;;;;;0.90;0.50;;;20.00;83.60;;;;;;6274132;22;45267;-70
2022/11/09 01:02:39;;;;;;;1.00;0.70;;;20.00;83.60;;;;;;6273717;22;45491;-70
2022/11/09 01:05:06;;;;;;;0.77;0.57;;;20.00;83.60;;;;;;6274121;22;45379;-70
2022/11/09 01:07:33;;;;;;;0.70;0.50;;;20.00;83.60;;;;;;6272663;22;45305;-69
2022/11/09 01:09:59;;;;;;;0.73;0.45;;;20.00;83.60;;;;;;6274209;22;45247;-69
2022/11/09 01:12:26;;;;;;;0.85;0.68;;;20.00;83.70;;;;;;6273692;22;45370;-70
2022/11/09 01:14:53;;;;;;;0.60;0.45;;;20.00;83.60;;;;;;6274102;22;45513;-70
2022/11/09 01:17:20;;;;;;;0.63;0.38;;;20.00;83.30;;;;;;6272793;22;47355;-69
2022/11/09 01:19:48;;;;;;;0.40;0.40;;;20.00;83.30;;;;;;6273842;22;45236;-70
2022/11/09 01:22:15;;;;;;;1.50;0.60;;;20.00;83.30;;;;;;6274091;22;45440;-69
2022/11/09 01:24:42;;;;;;;0.70;0.43;;;20.00;83.10;;;;;;6274005;22;45420;-69
2022/11/09 01:27:09;;;;;;;0.65;0.52;;;20.00;83.00;;;;;;6273031;22;47164;-70
2022/11/09 01:29:36;;;;;;;0.85;0.70;;;20.00;83.00;;;;;;6271803;22;45320;-70
2022/11/09 01:32:03;;;;;;;0.73;0.60;;;20.00;82.90;;;;;;6273671;22;45275;-69
2022/11/09 01:34:30;;;;;;;1.02;0.65;;;20.00;82.50;;;;;;6273873;22;45502;-70
2022/11/09 01:36:59;;;;;;;1.50;0.60;;;20.00;83.70;;;;;;6272749;22;46455;-69
2022/11/09 01:39:25;;;;;;;0.30;0.30;;;20.00;82.60;;;;;;6273959;22;46248;-70
2022/11/09 01:41:52;;;;;;;1.15;0.50;;;20.00;82.50;;;;;;6273445;22;45281;-70
2022/11/09 01:44:20;;;;;;;1.17;0.50;;;20.00;82.70;;;;;;6274081;22;45465;-70
2022/11/09 01:46:52;;;;;;;0.80;0.52;;;20.00;82.60;;;;;;6271717;22;45437;-70
2022/11/09 01:49:40;;;;;;;0.50;0.40;;;19.90;82.60;;;;;;6273879;22;45569;-70
2022/11/09 01:52:13;;;;;;;1.17;0.47;;;20.00;82.90;;;;;;6273901;22;45307;-69
2022/11/09 01:54:44;;;;;;;0.90;0.50;;;20.00;83.10;;;;;;6273645;22;45500;-69
2022/11/09 01:57:13;;;;;;;2.65;0.55;;;20.00;83.00;;;;;;6272659;22;45506;-70
2022/11/09 01:59:46;;;;;;;1.38;0.50;;;20.00;82.90;;;;;;6273308;22;45362;-69
2022/11/09 02:02:13;;;;;;;0.43;0.43;;;20.00;83.10;;;;;;6273796;22;45283;-70
2022/11/09 02:04:43;;;;;;;1.10;0.45;;;20.00;83.10;;;;;;6274339;22;45240;-69
2022/11/09 02:07:11;;;;;;;0.60;0.50;;;20.00;83.20;;;;;;6272171;22;46369;-70
2022/11/09 02:09:43;;;;;;;0.57;0.40;;;20.00;83.10;;;;;;6273541;22;45223;-70
2022/11/09 02:12:10;;;;;;;0.80;0.47;;;20.00;83.00;;;;;;6273143;22;45416;-69
2022/11/09 02:14:38;;;;;;;0.63;0.40;;;20.00;82.70;;;;;;6274139;22;45282;-70
2022/11/09 02:17:06;;;;;;;2.60;0.50;;;20.00;82.70;;;;;;6272367;22;47097;-70
2022/11/09 02:19:33;;;;;;;1.23;0.68;;;20.00;82.60;;;;;;6272939;22;45348;-69
2022/11/09 02:22:02;;;;;;;0.85;0.60;;;19.90;82.50;;;;;;6273645;22;45272;-70
2022/11/09 02:24:29;;;;;;;0.88;0.50;;;20.00;82.20;;;;;;6273721;22;45223;-69
2022/11/09 02:26:56;;;;;;;0.77;0.40;;;20.00;82.10;;;;;;6272463;22;47094;-70
2022/11/09 02:29:27;;;;;;;0.95;0.40;;;20.00;82.30;;;;;;6270885;22;45283;-70
2022/11/09 02:31:59;;;;;;;0.30;0.30;;;20.00;82.20;;;;;;6273543;22;45235;-69
2022/11/09 02:34:25;;;;;;;1.50;0.35;;;20.00;81.90;;;;;;6274431;22;45137;-70
2022/11/09 02:36:52;;;;;;;2.25;0.50;;;20.00;82.00;;;;;;6271671;22;45351;-69
2022/11/09 02:39:23;;;;;;;0.70;0.40;;;20.00;81.90;;;;;;6273561;22;45216;-69
2022/11/09 02:41:53;;;;;;;1.02;0.50;;;20.00;82.10;;;;;;6273205;22;45336;-70
2022/11/09 02:44:20;;;;;;;0.93;0.43;;;20.00;82.00;;;;;;6273835;22;45436;-70
2022/11/09 02:46:47;;;;;;;0.73;0.47;;;20.00;82.40;;;;;;6272679;22;47411;-69
2022/11/09 02:49:14;;;;;;;0.68;0.52;;;20.00;82.40;;;;;;6242261;22;45247;-69
2022/11/09 02:51:41;;;;;;;1.92;0.60;;;20.00;82.40;;;;;;6243258;22;45320;-70
2022/11/09 02:54:08;;;;;;;1.58;0.60;;;20.00;82.40;;;;;;6242647;22;45206;-70
2022/11/09 02:56:36;;;;;;;0.55;0.50;;;20.00;82.60;;;;;;6241044;22;46424;-70
2022/11/09 02:59:03;;;;;;;0.90;0.40;;;20.00;82.30;;;;;;6242507;22;46238;-70
2022/11/09 03:01:30;;;;;;;0.88;0.50;;;20.00;82.50;;;;;;6242837;22;45287;-69
2022/11/09 03:03:56;;;;;;;2.30;0.70;;;20.00;82.50;;;;;;6242798;22;45352;-70
2022/11/09 03:06:33;;;;;;;0.30;0.30;;;20.00;82.60;;;;;;6241153;22;45444;-69
2022/11/09 03:09:00;;;;;;;1.95;0.57;;;20.00;82.40;;;;;;6242860;22;45888;-69
2022/11/09 03:11:27;;;;;;;1.35;0.50;;;20.00;82.30;;;;;;6241286;22;45285;-70
2022/11/09 03:13:55;;;;;;;0.90;0.40;;;20.00;82.40;;;;;;6242959;22;45429;-70
2022/11/09 03:16:22;;;;;;;1.63;0.50;;;20.00;82.20;;;;;;6240936;22;47158;-70
2022/11/09 03:18:49;;;;;;;0.68;0.50;;;20.00;82.00;;;;;;6242689;22;45295;-70
2022/11/09 03:21:16;;;;;;;1.60;0.60;;;20.00;81.80;;;;;;6242758;22;45335;-70
2022/11/09 03:23:42;;;;;;;0.80;0.40;;;20.00;81.80;;;;;;6242451;22;45251;-70
2022/11/09 03:26:09;;;;;;;1.30;0.45;;;20.00;81.80;;;;;;6242204;22;48013;-70
2022/11/09 03:28:36;;;;;;;2.50;0.60;;;20.00;81.80;;;;;;6239438;22;45381;-69
2022/11/09 03:31:04;;;;;;;1.27;0.40;;;20.00;81.70;;;;;;6242555;22;45475;-71
2022/11/09 03:33:31;;;;;;;0.70;0.35;;;20.00;81.50;;;;;;6242655;22;45221;-70
2022/11/09 03:35:58;;;;;;;1.00;0.50;;;20.00;81.60;;;;;;6241693;22;47256;-69
2022/11/09 03:38:25;;;;;;;1.80;0.60;;;20.00;81.50;;;;;;6241900;22;45336;-69
2022/11/09 03:40:52;;;;;;;0.85;0.40;;;20.00;81.50;;;;;;6242187;22;45429;-69
2022/11/09 03:43:19;;;;;;;0.60;0.38;;;20.00;81.50;;;;;;6242752;22;45480;-70
2022/11/09 03:45:47;;;;;;;0.88;0.32;;;20.00;81.80;;;;;;6241365;22;45462;-69
2022/11/09 03:48:15;;;;;;;0.77;0.40;;;19.90;82.00;;;;;;6259098;22;45462;-70
2022/11/09 03:50:41;;;;;;;1.13;0.43;;;20.00;82.10;;;;;;6273246;22;45232;-70
2022/11/09 03:53:09;;;;;;;0.93;0.40;;;20.00;81.90;;;;;;6272731;22;45666;-70
2022/11/09 03:55:36;;;;;;;0.70;0.50;;;20.00;82.00;;;;;;6272763;22;48028;-69
2022/11/09 03:58:03;;;;;;;0.40;0.30;;;20.00;82.10;;;;;;6272170;22;45281;-69
2022/11/09 04:00:30;;;;;;;0.82;0.55;;;20.00;82.00;;;;;;6273181;22;45262;-70
2022/11/09 04:02:57;;;;;;;1.13;0.40;;;20.00;82.20;;;;;;6273413;22;45315;-70
2022/11/09 04:05:25;;;;;;;0.25;0.20;;;20.00;82.20;;;;;;6272540;22;46620;-70
2022/11/09 04:07:54;;;;;;;1.08;0.40;;;20.00;82.10;;;;;;6272465;22;45321;-70
2022/11/09 04:10:22;;;;;;;1.15;0.60;;;20.00;82.10;;;;;;6272460;22;45227;-69
2022/11/09 04:12:49;;;;;;;1.42;0.70;;;20.00;81.90;;;;;;6270778;22;45453;-70
2022/11/09 04:15:17;;;;;;;0.30;0.30;;;20.00;81.80;;;;;;6272240;22;47395;-70
2022/11/09 04:17:44;;;;;;;1.02;0.40;;;20.00;81.40;;;;;;6271678;22;46024;-71
2022/11/09 04:20:11;;;;;;;1.10;0.68;;;20.00;81.60;;;;;;6272749;22;45256;-70
2022/11/09 04:22:40;;;;;;;2.13;1.05;;;20.00;81.50;;;;;;6272793;22;45272;-70
2022/11/09 04:25:07;;;;;;;1.08;0.40;;;20.00;81.40;;;;;;6272966;22;45298;-70
2022/11/09 04:27:34;;;;;;;1.27;0.43;;;20.00;81.40;;;;;;6271386;22;45324;-69
2022/11/09 04:30:00;;;;;;;1.70;0.57;;;20.00;81.40;;;;;;6271345;22;45323;-70
2022/11/09 04:32:27;;;;;;;1.35;0.55;;;20.00;81.30;;;;;;6271949;22;45243;-70
2022/11/09 04:34:54;;;;;;;1.42;0.40;;;20.00;81.20;;;;;;6271999;22;47306;-70
2022/11/09 04:37:21;;;;;;;2.20;0.50;;;20.00;80.90;;;;;;6270095;22;45383;-69
2022/11/09 04:39:49;;;;;;;1.42;0.40;;;20.00;81.20;;;;;;6271824;22;45270;-69
2022/11/09 04:42:15;;;;;;;1.38;0.50;;;20.00;81.30;;;;;;6273260;22;45367;-69
2022/11/09 04:44:42;;;;;;;0.65;0.40;;;20.00;81.30;;;;;;6272269;22;47012;-70
2022/11/09 04:47:09;;;;;;;1.90;0.40;;;20.00;81.60;;;;;;6271750;22;45331;-69
2022/11/09 04:49:36;;;;;;;0.40;0.30;;;20.00;81.70;;;;;;6273534;22;45284;-70
2022/11/09 04:52:03;;;;;;;1.35;0.30;;;20.00;81.80;;;;;;6272197;22;45433;-71
2022/11/09 04:54:30;;;;;;;1.25;0.40;;;20.00;81.80;;;;;;6272760;22;46250;-69
2022/11/09 04:56:58;;;;;;;1.52;0.45;;;20.00;81.70;;;;;;6271555;22;45428;-70
2022/11/09 04:59:25;;;;;;;1.60;0.40;;;20.00;81.80;;;;;;6272986;22;45167;-70
2022/11/09 05:01:51;;;;;;;2.03;0.55;;;20.00;81.80;;;;;;6272883;22;45243;-69
2022/11/09 05:04:18;;;;;;;1.40;0.60;;;20.00;81.80;;;;;;6272465;22;47654;-69
2022/11/09 05:06:45;;;;;;;2.72;0.50;;;20.00;81.90;;;;;;6271444;22;45349;-69
2022/11/09 05:09:11;;;;;;;0.68;0.40;;;20.00;81.80;;;;;;6272298;22;45254;-70
2022/11/09 05:11:38;;;;;;;0.63;0.35;;;20.00;81.70;;;;;;6272903;22;45179;-69
2022/11/09 05:14:07;;;;;;;1.70;0.55;;;20.00;81.60;;;;;;6272210;22;46221;-69
2022/11/09 05:16:33;;;;;;;1.17;0.73;;;20.00;81.60;;;;;;6271410;22;45377;-70
2022/11/09 05:19:00;;;;;;;0.82;0.20;;;20.00;81.70;;;;;;6273012;22;45337;-69
2022/11/09 05:21:27;;;;;;;0.98;0.28;;;20.00;81.70;;;;;;6272027;22;45469;-69
2022/11/09 05:23:59;;;;;;;0.93;0.50;;;20.00;81.60;;;;;;6272644;22;46143;-70
2022/11/09 05:26:28;;;;;;;1.13;0.43;;;19.90;81.50;;;;;;6271884;22;45356;-70
2022/11/09 05:28:56;;;;;;;0.50;0.25;;;19.90;81.50;;;;;;6270692;22;45427;-69
2022/11/09 05:31:24;;;;;;;0.88;0.40;;;19.90;81.70;;;;;;6272737;22;45476;-69
2022/11/09 05:33:52;;;;;;;0.65;0.40;;;19.90;81.80;;;;;;6272238;22;46275;-69
2022/11/09 05:36:19;;;;;;;1.05;0.32;;;19.90;81.70;;;;;;6273884;22;45167;-70
2022/11/09 05:38:47;;;;;;;0.57;0.40;;;19.90;81.90;;;;;;6272645;22;45298;-70
2022/11/09 05:41:14;;;;;;;1.25;0.60;;;19.90;82.80;;;;;;6274259;22;45261;-69
2022/11/09 05:43:41;;;;;;;3.13;0.52;;;19.90;81.90;;;;;;6273392;22;45268;-70
2022/11/09 05:46:08;;;;;;;0.93;0.50;;;19.90;82.00;;;;;;6271525;22;45301;-69
2022/11/09 05:48:36;;;;;;;0.50;0.40;;;19.90;82.20;;;;;;6271877;22;45364;-69
2022/11/09 05:51:03;;;;;;;0.82;0.50;;;19.90;82.20;;;;;;6272512;22;45274;-70
2022/11/09 05:53:31;;;;;;;0.77;0.40;;;19.90;82.20;;;;;;6272235;22;47766;-70
2022/11/09 05:56:02;;;;;;;0.82;0.38;;;19.90;82.20;;;;;;6270900;22;45284;-69
2022/11/09 05:58:28;;;;;;;1.23;0.45;;;19.90;82.10;;;;;;6272542;22;45459;-70
2022/11/09 06:00:55;;;;;;;0.93;0.40;;;19.90;81.90;;;;;;6271833;22;45561;-70
2022/11/09 06:03:22;;;;;;;1.23;0.55;;;19.90;82.10;;;;;;6271594;22;45283;-70
2022/11/09 06:05:50;;;;;;;2.10;0.70;;;19.90;82.00;;;;;;6271515;22;45199;-70
2022/11/09 06:08:17;;;;;;;1.08;0.40;;;20.00;82.00;;;;;;6270032;22;45361;-70
2022/11/09 06:10:43;;;;;;;0.80;0.43;;;19.90;81.70;;;;;;6271487;22;45362;-70
2022/11/09 06:13:11;;;;;;;0.77;0.50;;;19.90;81.60;;;;;;6272833;22;47152;-69
2022/11/09 06:15:37;;;;;;;1.63;0.55;;;19.90;81.50;;;;;;6272892;22;45243;-70
2022/11/09 06:18:04;;;;;;;1.08;0.30;;;19.90;81.50;;;;;;6272334;22;45197;-69
2022/11/09 06:20:32;;;;;;;0.73;0.38;;;19.90;81.60;;;;;;6272271;22;45346;-70
2022/11/09 06:23:01;;;;;;;0.85;0.40;;;19.90;81.60;;;;;;6272594;22;45279;-69
2022/11/09 06:25:28;;;;;;;0.40;0.30;;;19.90;81.70;;;;;;6271766;22;45192;-69
2022/11/09 06:27:57;;;;;;;0.32;0.20;;;19.90;81.80;;;;;;6273432;22;45244;-69
2022/11/09 06:30:23;;;;;;;0.90;0.38;;;19.90;81.80;;;;;;6271881;22;45284;-69
2022/11/09 06:32:50;;;;;;;0.43;0.40;;;19.90;81.90;;;;;;6273134;22;47474;-69
2022/11/09 06:35:17;;;;;;;0.20;0.20;;;19.90;81.90;;;;;;6272235;22;45827;-70
2022/11/09 06:37:44;;;;;;;1.05;0.57;;;19.90;82.10;;;;;;6270762;22;45240;-69
2022/11/09 06:40:14;;;;;;;1.05;0.32;;;19.90;82.10;;;;;;6273868;22;45351;-69
2022/11/09 06:42:40;;;;;;;1.45;0.40;;;19.90;82.10;;;;;;6272927;22;46559;-69
2022/11/09 06:45:08;;;;;;;1.25;0.30;;;19.90;82.20;;;;;;6272371;22;46294;-70
2022/11/09 06:47:35;;;;;;;0.68;0.30;;;20.00;82.30;;;;;;6271879;22;45215;-69
2022/11/09 06:50:02;;;;;;;1.50;0.45;;;20.00;82.40;;;;;;6272306;22;45379;-70
2022/11/09 06:52:29;;;;;;;0.85;0.32;;;20.00;82.50;;;;;;6273028;22;47005;-69
2022/11/09 06:54:55;;;;;;;1.10;0.52;;;19.90;82.40;;;;;;6272071;22;45364;-69
2022/11/09 06:57:24;;;;;;;0.38;0.20;;;20.00;82.40;;;;;;6271940;22;45268;-69
2022/11/09 06:59:50;;;;;;;0.30;0.30;;;20.00;82.60;;;;;;6273577;22;45379;-69
2022/11/09 07:02:17;;;;;;;0.73;0.43;;;20.00;82.50;;;;;;6272681;22;48431;-69
2022/11/09 07:04:44;;;;;;;0.32;0.15;;;20.00;82.60;;;;;;6272910;22;46202;-69
2022/11/09 07:07:11;;;;;;;0.25;0.20;;;20.00;82.60;;;;;;6270575;22;45297;-69
2022/11/09 07:09:38;;;;;;;0.80;0.20;;;20.00;82.50;;;;;;6271894;22;45219;-69
2022/11/09 07:12:05;;;;;;;5.07;0.40;;;20.00;82.60;;;;;;6272169;22;47205;-70
2022/11/09 07:14:33;;;;;;;0.90;0.40;;;20.00;82.50;;;;;;6272497;22;45347;-70
2022/11/09 07:17:00;;;;;;;2.50;0.40;;;20.00;82.50;;;;;;6271880;22;45391;-69
2022/11/09 07:19:29;;;;;;;0.65;0.38;;;20.00;83.50;;;;;;6272560;22;45518;-70
2022/11/09 07:21:56;;;;;;;0.50;0.40;;;20.00;82.40;;;;;;6273255;22;46525;-69
2022/11/09 07:24:24;;;;;;;1.58;0.35;;;19.90;82.30;;;;;;6272741;22;45355;-70
2022/11/09 07:26:50;;;;;;;0.70;0.40;;;20.00;82.40;;;;;;6272059;22;45335;-69
2022/11/09 07:29:17;;;;;;;0.60;0.28;;;19.90;82.30;;;;;;6272104;22;45203;-69
2022/11/09 07:31:45;;;;;;;0.25;0.20;;;19.90;82.20;;;;;;6272837;22;46605;-70
2022/11/09 07:34:12;;;;;;;0.45;0.40;;;19.90;82.30;;;;;;6273414;22;45365;-69
2022/11/09 07:36:39;;;;;;;0.45;0.20;;;19.90;82.40;;;;;;6271961;22;45477;-70
2022/11/09 07:39:06;;;;;;;0.57;0.28;;;20.00;82.40;;;;;;6273185;22;45258;-69
2022/11/09 07:41:32;;;;;;;0.75;0.28;;;20.00;82.40;;;;;;6272424;22;46664;-69
2022/11/09 07:43:59;;;;;;;0.65;0.40;;;20.00;82.50;;;;;;6273006;22;45283;-70
2022/11/09 07:46:26;;;;;;;0.45;0.22;;;20.00;82.50;;;;;;6272831;22;45283;-69
2022/11/09 07:48:55;;;;;;;0.20;0.20;;;20.00;82.50;;;;;;6271101;22;45262;-70
2022/11/09 07:51:22;;;;;;;0.93;0.50;;;20.00;82.40;;;;;;6272791;22;47136;-69
2022/11/09 07:53:48;;;;;;;0.70;0.20;;;20.00;82.50;;;;;;6271730;22;45221;-70
2022/11/09 07:56:15;;;;;;;0.95;0.57;;;20.00;82.40;;;;;;6272625;22;45363;-70
2022/11/09 07:58:43;;;;;;;1.05;0.35;;;20.00;82.40;;;;;;6272678;22;45497;-69
2022/11/09 08:01:11;;;;;;;1.15;0.40;;;20.00;82.40;;;;;;6272140;22;46456;-69
2022/11/09 08:03:37;;;;;;;0.40;0.20;;;20.00;82.40;;;;;;6273155;22;45221;-70
2022/11/09 08:06:06;;;;;;;0.57;0.30;;;20.00;82.50;;;;;;6272527;22;45192;-69
2022/11/09 08:08:32;;;;;;;0.50;0.40;;;20.00;82.50;;;;;;6273136;22;45433;-69
2022/11/09 08:10:59;;;;;;;0.88;0.30;;;20.00;82.30;;;;;;6272641;22;46271;-69
2022/11/09 08:13:26;;;;;;;0.45;0.30;;;20.00;82.10;;;;;;6273011;22;45310;-69
2022/11/09 08:15:53;;;;;;;0.20;0.20;;;20.00;82.00;;;;;;6273288;22;45411;-69
2022/11/09 08:18:21;;;;;;;0.47;0.30;;;20.00;82.00;;;;;;6271798;22;45276;-69
2022/11/09 08:20:49;;;;;;;0.57;0.20;;;20.00;82.10;;;;;;6272380;22;47185;-69
2022/11/09 08:23:19;;;;;;;0.63;0.30;;;20.00;82.20;;;;;;6272252;22;45273;-70
2022/11/09 08:25:46;;;;;;;1.45;0.50;;;20.00;82.10;;;;;;6273523;22;45498;-69
2022/11/09 08:28:14;;;;;;;0.90;0.40;;;20.00;82.00;;;;;;6271264;22;45428;-70
2022/11/09 08:30:42;;;;;;;1.10;0.55;;;20.00;81.70;;;;;;6270258;22;47362;-69
2022/11/09 08:33:10;;;;;;;0.32;0.30;;;20.00;81.30;;;;;;6269052;22;45256;-69
2022/11/09 08:35:37;;;;;;;1.60;0.57;;;20.00;81.00;;;;;;6270372;22;45356;-69
2022/11/09 08:38:05;;;;;;;0.50;0.30;;;20.00;80.60;;;;;;6272466;22;45383;-69
2022/11/09 08:40:34;;;;;;;0.98;0.38;;;19.90;80.10;;;;;;6271698;22;47404;-69
2022/11/09 08:43:03;;;;;;;0.77;0.30;;;19.90;80.10;;;;;;6273116;22;46215;-70
2022/11/09 08:45:31;;;;;;;0.60;0.35;;;19.90;79.80;;;;;;6272963;22;45485;-70
2022/11/09 08:47:59;;;;;;;1.38;0.50;;;19.90;80.10;;;;;;6270843;22;45519;-69
2022/11/09 08:50:27;;;;;;;1.05;0.40;;;20.00;80.30;;;;;;6271400;22;47387;-70
2022/11/09 08:52:54;;;;;;;1.55;0.52;;;20.00;80.40;;;;;;6272678;22;46057;-70
2022/11/09 08:55:21;;;;;;;0.40;0.30;;;20.00;80.30;;;;;;6273099;22;45475;-69
2022/11/09 08:57:49;;;;;;;0.68;0.20;;;19.90;80.30;;;;;;6272642;22;45247;-70
2022/11/09 09:00:16;;;;;;;0.80;0.40;;;19.90;80.10;;;;;;6271487;22;45411;-69
2022/11/09 09:02:43;;;;;;;1.10;0.45;;;19.90;80.60;;;;;;6272761;22;45302;-70
2022/11/09 09:05:10;;;;;;;0.98;0.50;;;20.00;80.60;;;;;;6272295;22;45271;-69
2022/11/09 09:07:37;;;;;;;0.80;0.32;;;20.00;80.60;;;;;;6272838;22;45408;-69
2022/11/09 09:10:04;;;;;;;1.83;0.30;;;20.00;80.70;;;;;;6273481;22;48246;-70
2022/11/09 09:12:32;;;;;;;0.30;0.20;;;19.90;80.60;;;;;;6274311;22;45301;-69
2022/11/09 09:15:00;;;;;;;1.83;0.20;;;20.00;80.80;;;;;;6273896;22;45224;-70
2022/11/09 09:17:26;;;;;;;0.82;0.32;;;20.00;80.80;;;;;;6273363;22;45467;-70
2022/11/09 09:19:53;;;;;;;1.42;0.50;;;20.00;80.50;;;;;;6273766;22;46556;-70
2022/11/09 09:22:20;;;;;;;1.52;0.60;;;20.00;80.70;;;;;;6273387;22;45749;-69
2022/11/09 09:24:47;;;;;;;0.80;0.30;;;20.00;80.70;;;;;;6274369;22;45494;-70
2022/11/09 09:27:14;;;;;;;0.30;0.20;;;20.00;80.40;;;;;;6273296;22;45280;-69
2022/11/09 09:29:41;;;;;;;0.63;0.38;;;20.00;80.30;;;;;;6273973;22;47251;-69
2022/11/09 09:32:09;;;;;;;0.43;0.32;;;20.00;80.60;;;;;;6273769;22;45423;-69
2022/11/09 09:34:36;;;;;;;1.35;0.40;;;20.00;80.50;;;;;;6273738;22;45292;-70
2022/11/09 09:37:02;;;;;;;0.30;0.30;;;20.00;80.40;;;;;;6273292;22;45378;-69
2022/11/09 09:39:29;;;;;;;1.30;0.38;;;20.00;80.20;;;;;;6273566;22;47382;-69
2022/11/09 09:41:58;;;;;;;0.38;0.20;;;20.00;80.20;;;;;;6274051;22;45208;-70
2022/11/09 09:44:30;;;;;;;0.20;0.20;;;20.00;80.30;;;;;;6273620;22;45211;-69
2022/11/09 09:47:07;;;;;;;1.00;0.40;;;20.00;80.10;;;;;;6272683;22;45465;-70
2022/11/09 09:49:39;;;;;;;1.15;0.40;;;20.00;80.20;;;;;;6272942;22;47255;-69
2022/11/09 09:52:15;;;;;;;0.98;0.30;;;20.00;80.10;;;;;;6273271;22;45408;-69
2022/11/09 09:54:48;;;;;;;1.17;0.30;;;20.00;80.00;;;;;;6274036;22;45396;-70
2022/11/09 09:57:19;;;;;;;0.85;0.32;;;20.00;79.80;;;;;;6273144;22;45302;-70
2022/11/09 09:59:50;;;;;;;1.52;0.47;;;20.00;79.80;;;;;;6273069;22;47084;-70
2022/11/09 10:02:22;;;;;;;0.75;0.30;;;20.00;79.80;;;;;;6273783;22;45303;-69
2022/11/09 10:04:52;;;;;;;0.70;0.30;;;20.00;79.70;;;;;;6273637;22;45379;-69
2022/11/09 10:07:27;;;;;;;0.47;0.20;;;20.00;79.70;;;;;;6273178;22;45342;-69
2022/11/09 10:10:10;;;;;;;1.40;0.47;;;20.00;79.60;;;;;;6273284;22;46275;-69
2022/11/09 10:12:47;;;;;;;0.57;0.47;;;20.00;79.60;;;;;;6273626;22;45356;-70
2022/11/09 10:15:21;;;;;;;0.38;0.30;;;20.00;79.60;;;;;;6272820;22;45252;-70
2022/11/09 10:18:01;;;;;;;0.50;0.38;;;20.00;79.60;;;;;;6273825;22;45478;-69
2022/11/09 10:20:45;;;;;;;0.32;0.28;;;20.00;79.60;;;;;;6270510;22;47387;-70
2022/11/09 10:23:28;;;;;;;0.67;0.40;;;20.00;79.50;;;;;;6273335;22;45188;-68
2022/11/09 10:26:01;;;;;;;0.70;0.60;;;20.00;79.60;;;;;;6274090;22;45383;-71
2022/11/09 10:28:29;;;;;;;0.80;0.30;;;20.00;79.10;;;;;;6273561;22;45211;-70
2022/11/09 10:30:58;;;;;;;1.40;0.50;;;20.00;79.10;;;;;;6271418;22;47444;-70
2022/11/09 10:33:26;;;;;;;0.50;0.30;;;20.10;79.30;;;;;;6271930;22;45902;-70
2022/11/09 10:36:02;;;;;;;0.45;0.40;;;20.00;79.10;;;;;;6272242;22;45380;-70
2022/11/09 10:38:32;;;;;;;1.73;0.30;;;20.00;79.10;;;;;;6272154;22;45374;-70
2022/11/09 10:41:04;;;;;;;0.70;0.30;;;20.10;79.30;;;;;;6272813;22;48176;-70
2022/11/09 10:43:31;;;;;;;0.80;0.32;;;20.10;79.40;;;;;;6273541;22;45223;-70
2022/11/09 10:46:03;;;;;;;2.08;0.40;;;20.10;79.20;;;;;;6273718;22;45285;-70
2022/11/09 10:48:33;;;;;;;1.67;0.30;;;20.00;79.20;;;;;;6271783;22;45376;-70
2022/11/09 10:51:01;;;;;;;0.73;0.30;;;20.10;79.30;;;;;;6271334;22;46407;-71
2022/11/09 10:53:30;;;;;;;1.00;0.20;;;20.00;79.20;;;;;;6273106;22;45552;-70
2022/11/09 10:56:04;;;;;;;0.88;0.40;;;20.10;79.20;;;;;;6272567;22;45366;-70
2022/11/09 10:58:34;;;;;;;0.38;0.35;;;20.10;79.30;;;;;;6272479;22;45326;-71
2022/11/09 11:01:04;;;;;;;0.50;0.25;;;20.10;79.20;;;;;;6271678;22;47296;-71
2022/11/09 11:03:34;;;;;;;0.55;0.30;;;20.10;79.30;;;;;;6273362;22;45336;-70
2022/11/09 11:06:05;;;;;;;1.95;0.30;;;20.00;79.20;;;;;;6273883;22;45318;-70
2022/11/09 11:08:36;;;;;;;0.70;0.32;;;20.10;79.20;;;;;;6272914;22;45391;-70
2022/11/09 11:11:08;;;;;;;1.48;0.52;;;20.10;79.20;;;;;;6273635;22;47379;-71
2022/11/09 11:13:35;;;;;;;0.57;0.20;;;20.10;79.20;;;;;;6272681;22;45415;-70
2022/11/09 11:16:15;;;;;;;1.33;0.32;;;20.10;79.20;;;;;;6272656;22;45528;-70
2022/11/09 11:18:46;;;;;;;0.75;0.38;;;20.10;79.20;;;;;;6272536;22;45343;-70
2022/11/09 11:21:17;;;;;;;2.22;0.30;;;20.10;79.20;;;;;;6272940;22;48127;-71
2022/11/09 11:23:44;;;;;;;1.35;0.40;;;20.10;79.20;;;;;;6273503;22;45170;-70
2022/11/09 11:26:37;;;;;;;0.60;0.25;;;20.10;79.10;;;;;;6272807;22;45296;-71
2022/11/09 11:29:13;;;;;;;0.80;0.30;;;20.10;79.20;;;;;;6272932;22;45584;-71
2022/11/09 11:31:40;;;;;;;0.68;0.32;;;20.10;79.10;;;;;;6271882;22;46556;-71
2022/11/09 11:34:13;;;;;;;1.23;0.50;;;20.10;79.10;;;;;;6272678;22;45713;-70
2022/11/09 11:36:55;;;;;;;1.02;0.45;;;20.10;79.10;;;;;;6272721;22;45311;-71
2022/11/09 11:39:36;;;;;;;1.08;0.40;;;20.10;79.10;;;;;;6272710;22;45352;-70
2022/11/09 11:42:30;;;;;;;1.02;0.40;;;20.10;79.00;;;;;;6272628;22;48016;-71
2022/11/09 11:45:12;;;;;;;0.45;0.28;;;20.10;79.10;;;;;;6273179;22;45336;-71
2022/11/09 11:47:51;;;;;;;0.88;0.30;;;20.00;79.10;;;;;;6271806;22;45430;-71
2022/11/09 11:50:36;;;;;;;0.63;0.25;;;20.00;79.10;;;;;;6272888;22;45375;-71
2022/11/09 11:53:16;;;;;;;1.77;0.60;;;20.00;79.10;;;;;;6273707;22;48394;-70
2022/11/09 11:56:16;;;;;;;0.73;0.30;;;20.00;79.10;;;;;;6272256;22;45220;-71
2022/11/09 11:58:57;;;;;;;2.33;0.50;;;20.00;79.10;;;;;;6271108;22;45554;-71
2022/11/09 12:01:39;;;;;;;1.35;0.55;;;20.00;79.20;;;;;;6273093;22;45200;-70
2022/11/09 12:04:29;;;;;;;2.35;0.25;;;20.00;79.20;;;;;;6271996;22;45237;-71
2022/11/09 12:07:09;;;;;;;0.57;0.20;;;20.00;79.30;;;;;;6271737;22;45352;-70
2022/11/09 12:10:00;;;;;;;0.73;0.30;;;20.00;79.20;;;;;;6272196;22;45336;-70
2022/11/09 12:12:37;;;;;;;2.15;0.38;;;20.00;79.20;;;;;;6273079;22;45479;-71
2022/11/09 12:15:38;;;;;;;0.43;0.20;;;20.00;78.90;;;;;;6271884;22;48044;-70
2022/11/09 12:18:19;;;;;;;0.50;0.30;;;20.00;79.10;;;;;;6240063;22;45382;-71
2022/11/09 12:20:56;;;;;;;0.90;0.25;;;20.10;79.10;;;;;;6271692;22;45295;-71
2022/11/09 12:23:44;;;;;;;0.28;0.20;;;20.10;79.10;;;;;;6272568;22;45278;-70
2022/11/09 12:26:20;;;;;;;1.10;0.30;;;20.10;79.00;;;;;;6271252;22;45339;-71
2022/11/09 12:29:04;;;;;;;1.67;0.40;;;20.10;79.00;;;;;;6271216;22;45287;-71
2022/11/09 12:31:39;;;;;;;1.33;0.73;;;20.10;78.90;;;;;;6271295;22;45242;-71
2022/11/09 12:34:14;;;;;;;0.85;0.30;;;20.10;78.80;;;;;;6271438;22;45342;-71
2022/11/09 12:36:47;;;;;;;0.82;0.20;;;20.10;78.50;;;;;;6272253;22;46312;-71
2022/11/09 12:39:25;;;;;;;0.38;0.13;;;20.10;78.60;;;;;;6272019;22;45309;-71
2022/11/09 12:41:58;;;;;;;0.82;0.40;;;20.10;78.40;;;;;;6272437;22;45338;-71
2022/11/09 12:44:28;;;;;;;1.17;0.30;;;20.10;78.40;;;;;;6276088;22;45275;-71
2022/11/09 12:46:59;;;;;;;0.25;0.25;;;20.10;78.60;;;;;;6275241;22;47458;-71
2022/11/09 12:49:34;;;;;;;1.20;0.38;;;20.10;78.40;;;;;;6274457;22;45271;-71
2022/11/09 12:52:01;;;;;;;1.05;0.40;;;20.10;78.70;;;;;;6276402;22;45421;-70
2022/11/09 12:54:28;;;;;;;0.73;0.25;;;20.10;78.50;;;;;;6274782;22;45283;-71
2022/11/09 12:56:59;;;;;;;0.65;0.30;;;20.10;78.40;;;;;;6275895;22;47080;-71
2022/11/09 12:59:47;;;;;;;1.13;0.30;;;20.10;78.50;;;;;;6272423;22;45367;-71